sensor_id;sensor_type;location;lat;lon;timestamp;P1;durP1;ratioP1;P2;durP2;ratioP2
1206;SDS011;593;53.184;8.216;2022-11-18T00:00:17;4.00;;;3.60;;
1206;SDS011;593;53.184;8.216;2022-11-18T00:02:42;4.30;;;3.90;;
1206;SDS011;593;53.184;8.216;2022-11-18T00:05:08;5.87;;;3.80;;
1206;SDS011;593;53.184;8.216;2022-11-18T00:07:33;5.13;;;3.83;;
1206;SDS011;593;53.184;8.216;2022-11-18T00:09:58;5.00;;;3.93;;
1206;SDS011;593;53.184;8.216;2022-11-18T00:12:24;3.93;;;3.53;;
1206;SDS011;593;53.184;8.216;2022-11-18T00:15:21;4.70;;;4.13;;
1206;SDS011;593;53.184;8.216;2022-11-18T00:17:46;6.13;;;4.73;;
1206;SDS011;593;53.184;8.216;2022-11-18T00:20:12;5.87;;;4.00;;
1206;SDS011;593;53.184;8.216;2022-11-18T00:22:37;4.13;;;3.70;;
1206;SDS011;593;53.184;8.216;2022-11-18T00:25:02;4.40;;;4.00;;
1206;SDS011;593;53.184;8.216;2022-11-18T00:27:28;5.20;;;4.70;;
1206;SDS011;593;53.184;8.216;2022-11-18T00:29:57;6.43;;;4.10;;
1206;SDS011;593;53.184;8.216;2022-11-18T00:32:23;3.93;;;3.53;;
1206;SDS011;593;53.184;8.216;2022-11-18T00:34:48;4.97;;;4.50;;
1206;SDS011;593;53.184;8.216;2022-11-18T00:37:13;4.17;;;3.77;;
1206;SDS011;593;53.184;8.216;2022-11-18T00:39:39;4.80;;;4.30;;
1206;SDS011;593;53.184;8.216;2022-11-18T00:42:04;4.77;;;4.10;;
1206;SDS011;593;53.184;8.216;2022-11-18T00:44:48;4.80;;;3.72;;
1206;SDS011;593;53.184;8.216;2022-11-18T00:47:14;4.27;;;3.90;;
1206;SDS011;593;53.184;8.216;2022-11-18T00:49:39;5.00;;;4.50;;
1206;SDS011;593;53.184;8.216;2022-11-18T00:52:04;4.60;;;4.20;;
1206;SDS011;593;53.184;8.216;2022-11-18T00:54:30;6.03;;;4.30;;
1206;SDS011;593;53.184;8.216;2022-11-18T00:56:55;7.57;;;5.30;;
1206;SDS011;593;53.184;8.216;2022-11-18T00:59:21;6.10;;;4.47;;
1206;SDS011;593;53.184;8.216;2022-11-18T01:01:46;5.43;;;4.50;;
1206;SDS011;593;53.184;8.216;2022-11-18T01:04:13;4.97;;;4.47;;
1206;SDS011;593;53.184;8.216;2022-11-18T01:06:38;5.27;;;4.70;;
1206;SDS011;593;53.184;8.216;2022-11-18T01:09:04;4.87;;;4.40;;
1206;SDS011;593;53.184;8.216;2022-11-18T01:11:29;4.97;;;4.20;;
1206;SDS011;593;53.184;8.216;2022-11-18T01:14:13;5.15;;;3.92;;
1206;SDS011;593;53.184;8.216;2022-11-18T01:16:38;5.07;;;4.40;;
1206;SDS011;593;53.184;8.216;2022-11-18T01:19:04;6.37;;;4.70;;
1206;SDS011;593;53.184;8.216;2022-11-18T01:21:29;4.27;;;3.87;;
1206;SDS011;593;53.184;8.216;2022-11-18T01:23:55;5.37;;;4.03;;
1206;SDS011;593;53.184;8.216;2022-11-18T01:26:20;7.13;;;3.80;;
1206;SDS011;593;53.184;8.216;2022-11-18T01:28:45;5.23;;;4.73;;
1206;SDS011;593;53.184;8.216;2022-11-18T01:31:12;5.17;;;3.80;;
1206;SDS011;593;53.184;8.216;2022-11-18T01:33:39;4.68;;;4.00;;
1206;SDS011;593;53.184;8.216;2022-11-18T01:36:13;4.40;;;4.00;;
1206;SDS011;593;53.184;8.216;2022-11-18T01:38:39;6.85;;;5.18;;
1206;SDS011;593;53.184;8.216;2022-11-18T01:41:05;6.47;;;4.53;;
1206;SDS011;593;53.184;8.216;2022-11-18T01:46:26;7.80;;;3.83;;
1206;SDS011;593;53.184;8.216;2022-11-18T01:49:14;5.47;;;4.95;;
1206;SDS011;593;53.184;8.216;2022-11-18T01:51:48;5.05;;;4.22;;
1206;SDS011;593;53.184;8.216;2022-11-18T01:54:38;5.82;;;3.63;;
1206;SDS011;593;53.184;8.216;2022-11-18T01:57:06;5.40;;;3.70;;
1206;SDS011;593;53.184;8.216;2022-11-18T01:59:36;5.07;;;4.63;;
1206;SDS011;593;53.184;8.216;2022-11-18T02:02:07;5.55;;;4.53;;
1206;SDS011;593;53.184;8.216;2022-11-18T02:04:36;6.40;;;5.50;;
1206;SDS011;593;53.184;8.216;2022-11-18T02:07:04;8.45;;;4.85;;
1206;SDS011;593;53.184;8.216;2022-11-18T02:09:31;6.57;;;4.72;;
1206;SDS011;593;53.184;8.216;2022-11-18T02:11:56;8.80;;;5.03;;
1206;SDS011;593;53.184;8.216;2022-11-18T02:14:26;5.37;;;4.67;;
1206;SDS011;593;53.184;8.216;2022-11-18T02:19:53;6.13;;;4.70;;
1206;SDS011;593;53.184;8.216;2022-11-18T02:34:02;8.57;;;5.07;;
1206;SDS011;593;53.184;8.216;2022-11-18T02:36:12;4.20;;;3.80;;
1206;SDS011;593;53.184;8.216;2022-11-18T02:38:44;6.45;;;4.68;;
1206;SDS011;593;53.184;8.216;2022-11-18T02:41:15;5.30;;;4.50;;
1206;SDS011;593;53.184;8.216;2022-11-18T02:43:45;5.50;;;4.25;;
1206;SDS011;593;53.184;8.216;2022-11-18T02:46:15;5.93;;;4.50;;
1206;SDS011;593;53.184;8.216;2022-11-18T02:48:45;5.45;;;4.05;;
1206;SDS011;593;53.184;8.216;2022-11-18T02:51:32;4.50;;;3.90;;
1206;SDS011;593;53.184;8.216;2022-11-18T02:53:59;6.97;;;4.38;;
1206;SDS011;593;53.184;8.216;2022-11-18T02:56:29;4.35;;;3.75;;
1206;SDS011;593;53.184;8.216;2022-11-18T02:58:56;4.88;;;3.92;;
1206;SDS011;593;53.184;8.216;2022-11-18T03:01:23;7.60;;;4.63;;
1206;SDS011;593;53.184;8.216;2022-11-18T03:03:52;5.72;;;5.05;;
1206;SDS011;593;53.184;8.216;2022-11-18T03:11:48;5.60;;;4.47;;
1206;SDS011;593;53.184;8.216;2022-11-18T03:22:38;6.20;;;4.50;;
1206;SDS011;593;53.184;8.216;2022-11-18T03:25:52;6.90;;;4.13;;
1206;SDS011;593;53.184;8.216;2022-11-18T03:28:08;5.47;;;3.65;;
1206;SDS011;593;53.184;8.216;2022-11-18T03:30:44;4.43;;;3.67;;
1206;SDS011;593;53.184;8.216;2022-11-18T03:33:16;4.93;;;3.38;;
1206;SDS011;593;53.184;8.216;2022-11-18T03:35:46;3.92;;;3.40;;
1206;SDS011;593;53.184;8.216;2022-11-18T03:38:17;4.50;;;3.08;;
1206;SDS011;593;53.184;8.216;2022-11-18T03:40:50;4.78;;;3.00;;
1206;SDS011;593;53.184;8.216;2022-11-18T03:43:22;3.10;;;2.53;;
1206;SDS011;593;53.184;8.216;2022-11-18T03:45:51;2.65;;;2.03;;
1206;SDS011;593;53.184;8.216;2022-11-18T03:48:23;3.85;;;2.92;;
1206;SDS011;593;53.184;8.216;2022-11-18T03:50:55;3.40;;;3.10;;
1206;SDS011;593;53.184;8.216;2022-11-18T03:53:25;3.97;;;3.28;;
1206;SDS011;593;53.184;8.216;2022-11-18T03:55:57;4.03;;;2.85;;
1206;SDS011;593;53.184;8.216;2022-11-18T04:01:21;3.15;;;2.85;;
1206;SDS011;593;53.184;8.216;2022-11-18T04:03:52;5.10;;;3.45;;
1206;SDS011;593;53.184;8.216;2022-11-18T04:09:27;4.28;;;3.85;;
1206;SDS011;593;53.184;8.216;2022-11-18T04:12:01;4.90;;;3.25;;
1206;SDS011;593;53.184;8.216;2022-11-18T04:14:33;4.10;;;3.53;;
1206;SDS011;593;53.184;8.216;2022-11-18T04:17:20;5.85;;;4.72;;
1206;SDS011;593;53.184;8.216;2022-11-18T04:19:47;7.10;;;4.30;;
1206;SDS011;593;53.184;8.216;2022-11-18T04:22:13;8.03;;;5.00;;
1206;SDS011;593;53.184;8.216;2022-11-18T04:24:38;5.70;;;4.80;;
1206;SDS011;593;53.184;8.216;2022-11-18T04:27:05;5.97;;;4.90;;
1206;SDS011;593;53.184;8.216;2022-11-18T04:29:31;8.57;;;4.32;;
1206;SDS011;593;53.184;8.216;2022-11-18T04:31:58;6.93;;;4.78;;
1206;SDS011;593;53.184;8.216;2022-11-18T04:34:24;6.60;;;5.05;;
1206;SDS011;593;53.184;8.216;2022-11-18T04:36:50;6.50;;;4.40;;
1206;SDS011;593;53.184;8.216;2022-11-18T04:39:15;5.23;;;3.63;;
1206;SDS011;593;53.184;8.216;2022-11-18T04:41:42;9.63;;;5.43;;
1206;SDS011;593;53.184;8.216;2022-11-18T04:44:29;6.80;;;5.85;;
1206;SDS011;593;53.184;8.216;2022-11-18T04:46:56;5.43;;;4.60;;
1206;SDS011;593;53.184;8.216;2022-11-18T04:49:24;6.03;;;5.30;;
1206;SDS011;593;53.184;8.216;2022-11-18T04:51:50;7.28;;;5.32;;
1206;SDS011;593;53.184;8.216;2022-11-18T04:54:17;7.45;;;5.20;;
1206;SDS011;593;53.184;8.216;2022-11-18T04:56:43;6.20;;;5.50;;
1206;SDS011;593;53.184;8.216;2022-11-18T04:59:09;9.57;;;5.40;;
1206;SDS011;593;53.184;8.216;2022-11-18T05:01:35;8.73;;;5.57;;
1206;SDS011;593;53.184;8.216;2022-11-18T05:04:00;7.30;;;5.90;;
1206;SDS011;593;53.184;8.216;2022-11-18T05:06:27;7.57;;;5.82;;
1206;SDS011;593;53.184;8.216;2022-11-18T05:08:53;5.90;;;4.68;;
1206;SDS011;593;53.184;8.216;2022-11-18T05:11:19;6.37;;;4.93;;
1206;SDS011;593;53.184;8.216;2022-11-18T05:14:03;7.15;;;5.53;;
1206;SDS011;593;53.184;8.216;2022-11-18T05:16:28;10.83;;;6.00;;
1206;SDS011;593;53.184;8.216;2022-11-18T05:18:54;8.47;;;6.00;;
1206;SDS011;593;53.184;8.216;2022-11-18T05:21:19;7.27;;;4.73;;
1206;SDS011;593;53.184;8.216;2022-11-18T05:23:44;8.43;;;6.77;;
1206;SDS011;593;53.184;8.216;2022-11-18T05:26:10;8.43;;;6.23;;
1206;SDS011;593;53.184;8.216;2022-11-18T05:28:36;10.45;;;7.40;;
1206;SDS011;593;53.184;8.216;2022-11-18T05:31:06;7.82;;;6.57;;
1206;SDS011;593;53.184;8.216;2022-11-18T05:33:36;10.50;;;7.00;;
1206;SDS011;593;53.184;8.216;2022-11-18T05:36:05;9.77;;;6.87;;
1206;SDS011;593;53.184;8.216;2022-11-18T05:38:33;8.75;;;7.63;;
1206;SDS011;593;53.184;8.216;2022-11-18T05:40:59;10.07;;;6.35;;
1206;SDS011;593;53.184;8.216;2022-11-18T05:43:25;7.17;;;5.90;;
1206;SDS011;593;53.184;8.216;2022-11-18T05:45:50;8.27;;;6.00;;
1206;SDS011;593;53.184;8.216;2022-11-18T05:48:16;11.60;;;6.80;;
1206;SDS011;593;53.184;8.216;2022-11-18T05:50:44;8.77;;;5.73;;
1206;SDS011;593;53.184;8.216;2022-11-18T05:53:11;9.93;;;6.60;;
1206;SDS011;593;53.184;8.216;2022-11-18T05:58:15;8.80;;;6.65;;
1206;SDS011;593;53.184;8.216;2022-11-18T06:00:41;7.57;;;6.80;;
1206;SDS011;593;53.184;8.216;2022-11-18T06:03:14;11.00;;;7.38;;
1206;SDS011;593;53.184;8.216;2022-11-18T06:05:44;8.40;;;6.25;;
1206;SDS011;593;53.184;8.216;2022-11-18T06:08:09;8.73;;;6.20;;
1206;SDS011;593;53.184;8.216;2022-11-18T06:10:36;8.15;;;5.93;;
1206;SDS011;593;53.184;8.216;2022-11-18T06:13:05;9.77;;;6.35;;
1206;SDS011;593;53.184;8.216;2022-11-18T06:15:37;9.15;;;6.88;;
1206;SDS011;593;53.184;8.216;2022-11-18T06:18:10;11.60;;;7.47;;
1206;SDS011;593;53.184;8.216;2022-11-18T06:20:47;9.75;;;6.88;;
1206;SDS011;593;53.184;8.216;2022-11-18T06:23:13;9.23;;;6.50;;
1206;SDS011;593;53.184;8.216;2022-11-18T06:25:38;10.37;;;6.83;;
1206;SDS011;593;53.184;8.216;2022-11-18T06:28:05;11.18;;;8.18;;
1206;SDS011;593;53.184;8.216;2022-11-18T06:30:31;9.17;;;6.90;;
1206;SDS011;593;53.184;8.216;2022-11-18T06:32:56;10.57;;;6.00;;
1206;SDS011;593;53.184;8.216;2022-11-18T06:35:22;9.60;;;6.33;;
1206;SDS011;593;53.184;8.216;2022-11-18T06:37:48;10.73;;;6.13;;
1206;SDS011;593;53.184;8.216;2022-11-18T06:40:13;10.63;;;7.20;;
1206;SDS011;593;53.184;8.216;2022-11-18T06:42:44;10.30;;;7.30;;
1206;SDS011;593;53.184;8.216;2022-11-18T06:45:31;10.85;;;7.22;;
1206;SDS011;593;53.184;8.216;2022-11-18T06:47:56;11.43;;;6.93;;
1206;SDS011;593;53.184;8.216;2022-11-18T06:50:22;10.07;;;6.78;;
1206;SDS011;593;53.184;8.216;2022-11-18T06:52:48;12.13;;;8.00;;
1206;SDS011;593;53.184;8.216;2022-11-18T06:55:14;10.57;;;6.80;;
1206;SDS011;593;53.184;8.216;2022-11-18T06:57:40;9.70;;;6.67;;
1206;SDS011;593;53.184;8.216;2022-11-18T07:00:05;7.43;;;5.80;;
1206;SDS011;593;53.184;8.216;2022-11-18T07:02:31;10.15;;;6.75;;
1206;SDS011;593;53.184;8.216;2022-11-18T07:04:59;10.15;;;6.55;;
1206;SDS011;593;53.184;8.216;2022-11-18T07:07:24;10.53;;;7.17;;
1206;SDS011;593;53.184;8.216;2022-11-18T07:09:50;12.90;;;8.83;;
1206;SDS011;593;53.184;8.216;2022-11-18T07:12:15;10.30;;;7.57;;
1206;SDS011;593;53.184;8.216;2022-11-18T07:14:40;8.43;;;6.23;;
1206;SDS011;593;53.184;8.216;2022-11-18T07:17:06;12.50;;;7.27;;
1206;SDS011;593;53.184;8.216;2022-11-18T07:19:31;9.17;;;6.97;;
1206;SDS011;593;53.184;8.216;2022-11-18T07:21:56;10.57;;;7.37;;
1206;SDS011;593;53.184;8.216;2022-11-18T07:24:23;10.85;;;7.00;;
1206;SDS011;593;53.184;8.216;2022-11-18T07:26:48;10.73;;;7.33;;
1206;SDS011;593;53.184;8.216;2022-11-18T07:29:14;13.90;;;8.23;;
1206;SDS011;593;53.184;8.216;2022-11-18T07:31:44;8.63;;;7.73;;
1206;SDS011;593;53.184;8.216;2022-11-18T07:34:23;13.68;;;8.43;;
1206;SDS011;593;53.184;8.216;2022-11-18T07:36:48;10.80;;;6.77;;
1206;SDS011;593;53.184;8.216;2022-11-18T07:39:14;9.80;;;8.00;;
1206;SDS011;593;53.184;8.216;2022-11-18T07:41:39;12.30;;;8.60;;
1206;SDS011;593;53.184;8.216;2022-11-18T07:44:05;12.40;;;7.70;;
1206;SDS011;593;53.184;8.216;2022-11-18T07:46:32;10.38;;;7.43;;
1206;SDS011;593;53.184;8.216;2022-11-18T07:49:00;12.80;;;7.70;;
1206;SDS011;593;53.184;8.216;2022-11-18T07:51:27;12.25;;;9.07;;
1206;SDS011;593;53.184;8.216;2022-11-18T07:53:55;10.57;;;7.68;;
1206;SDS011;593;53.184;8.216;2022-11-18T07:56:21;9.60;;;7.60;;
1206;SDS011;593;53.184;8.216;2022-11-18T07:58:47;10.03;;;7.13;;
1206;SDS011;593;53.184;8.216;2022-11-18T08:01:16;10.80;;;7.40;;
1206;SDS011;593;53.184;8.216;2022-11-18T08:03:44;10.85;;;7.65;;
1206;SDS011;593;53.184;8.216;2022-11-18T08:06:10;12.15;;;8.73;;
1206;SDS011;593;53.184;8.216;2022-11-18T08:08:37;11.38;;;7.78;;
1206;SDS011;593;53.184;8.216;2022-11-18T08:11:04;11.20;;;8.47;;
1206;SDS011;593;53.184;8.216;2022-11-18T08:13:31;10.77;;;7.53;;
1206;SDS011;593;53.184;8.216;2022-11-18T08:15:57;11.65;;;7.40;;
1206;SDS011;593;53.184;8.216;2022-11-18T08:18:23;12.60;;;8.80;;
1206;SDS011;593;53.184;8.216;2022-11-18T08:20:49;13.07;;;8.80;;
1206;SDS011;593;53.184;8.216;2022-11-18T08:23:14;13.77;;;8.90;;
1206;SDS011;593;53.184;8.216;2022-11-18T08:25:41;13.75;;;8.40;;
1206;SDS011;593;53.184;8.216;2022-11-18T08:28:08;14.95;;;7.78;;
1206;SDS011;593;53.184;8.216;2022-11-18T08:30:34;12.63;;;8.60;;
1206;SDS011;593;53.184;8.216;2022-11-18T08:33:00;10.87;;;7.53;;
1206;SDS011;593;53.184;8.216;2022-11-18T08:35:27;14.77;;;9.00;;
1206;SDS011;593;53.184;8.216;2022-11-18T08:38:01;14.00;;;7.75;;
1206;SDS011;593;53.184;8.216;2022-11-18T08:40:26;13.80;;;8.60;;
1206;SDS011;593;53.184;8.216;2022-11-18T08:42:51;14.53;;;8.93;;
1206;SDS011;593;53.184;8.216;2022-11-18T08:45:17;11.23;;;7.73;;
1206;SDS011;593;53.184;8.216;2022-11-18T08:47:42;11.70;;;8.23;;
1206;SDS011;593;53.184;8.216;2022-11-18T08:50:08;12.80;;;8.33;;
1206;SDS011;593;53.184;8.216;2022-11-18T08:52:34;14.60;;;8.68;;
1206;SDS011;593;53.184;8.216;2022-11-18T08:55:00;13.63;;;8.77;;
1206;SDS011;593;53.184;8.216;2022-11-18T08:57:26;12.27;;;8.30;;
1206;SDS011;593;53.184;8.216;2022-11-18T08:59:51;13.07;;;8.17;;
1206;SDS011;593;53.184;8.216;2022-11-18T09:02:18;14.43;;;8.77;;
1206;SDS011;593;53.184;8.216;2022-11-18T09:04:48;14.45;;;7.68;;
1206;SDS011;593;53.184;8.216;2022-11-18T09:07:16;16.90;;;10.70;;
1206;SDS011;593;53.184;8.216;2022-11-18T09:09:41;14.15;;;9.10;;
1206;SDS011;593;53.184;8.216;2022-11-18T09:12:07;11.67;;;8.17;;
1206;SDS011;593;53.184;8.216;2022-11-18T09:14:33;15.25;;;9.75;;
1206;SDS011;593;53.184;8.216;2022-11-18T09:16:59;11.52;;;8.43;;
1206;SDS011;593;53.184;8.216;2022-11-18T09:19:25;16.38;;;9.48;;
1206;SDS011;593;53.184;8.216;2022-11-18T09:21:51;12.70;;;8.83;;
1206;SDS011;593;53.184;8.216;2022-11-18T09:24:16;16.40;;;8.90;;
1206;SDS011;593;53.184;8.216;2022-11-18T09:26:41;13.23;;;8.27;;
1206;SDS011;593;53.184;8.216;2022-11-18T09:29:07;13.37;;;9.10;;
1206;SDS011;593;53.184;8.216;2022-11-18T09:31:32;15.00;;;9.80;;
1206;SDS011;593;53.184;8.216;2022-11-18T09:33:58;15.30;;;10.83;;
1206;SDS011;593;53.184;8.216;2022-11-18T09:36:24;12.05;;;9.32;;
1206;SDS011;593;53.184;8.216;2022-11-18T09:38:51;19.65;;;9.32;;
1206;SDS011;593;53.184;8.216;2022-11-18T09:44:09;14.65;;;8.73;;
1206;SDS011;593;53.184;8.216;2022-11-18T09:49:25;13.30;;;9.15;;
1206;SDS011;593;53.184;8.216;2022-11-18T09:51:54;17.00;;;9.80;;
1206;SDS011;593;53.184;8.216;2022-11-18T09:54:22;16.67;;;9.70;;
1206;SDS011;593;53.184;8.216;2022-11-18T09:56:51;13.43;;;9.45;;
1206;SDS011;593;53.184;8.216;2022-11-18T09:59:19;15.25;;;9.45;;
1206;SDS011;593;53.184;8.216;2022-11-18T10:01:47;15.65;;;10.25;;
1206;SDS011;593;53.184;8.216;2022-11-18T10:04:14;15.63;;;9.82;;
1206;SDS011;593;53.184;8.216;2022-11-18T10:06:41;14.38;;;10.43;;
1206;SDS011;593;53.184;8.216;2022-11-18T10:25:16;17.58;;;10.73;;
1206;SDS011;593;53.184;8.216;2022-11-18T10:27:42;16.88;;;10.15;;
1206;SDS011;593;53.184;8.216;2022-11-18T10:30:13;16.55;;;11.38;;
1206;SDS011;593;53.184;8.216;2022-11-18T10:32:53;18.23;;;11.43;;
1206;SDS011;593;53.184;8.216;2022-11-18T10:35:23;19.20;;;12.30;;
1206;SDS011;593;53.184;8.216;2022-11-18T10:40:39;21.35;;;12.20;;
1206;SDS011;593;53.184;8.216;2022-11-18T10:43:45;17.23;;;10.95;;
1206;SDS011;593;53.184;8.216;2022-11-18T10:46:26;23.33;;;12.30;;
1206;SDS011;593;53.184;8.216;2022-11-18T10:51:38;23.08;;;12.30;;
1206;SDS011;593;53.184;8.216;2022-11-18T10:59:23;16.00;;;10.70;;
1206;SDS011;593;53.184;8.216;2022-11-18T11:02:03;19.05;;;10.85;;
1206;SDS011;593;53.184;8.216;2022-11-18T11:04:40;17.20;;;11.00;;
1206;SDS011;593;53.184;8.216;2022-11-18T11:09:58;18.08;;;10.77;;
1206;SDS011;593;53.184;8.216;2022-11-18T11:12:33;18.45;;;11.75;;
1206;SDS011;593;53.184;8.216;2022-11-18T11:15:05;24.88;;;11.98;;
1206;SDS011;593;53.184;8.216;2022-11-18T11:17:51;17.42;;;11.63;;
1206;SDS011;593;53.184;8.216;2022-11-18T11:20:39;17.13;;;11.45;;
1206;SDS011;593;53.184;8.216;2022-11-18T11:23:08;19.50;;;10.70;;
1206;SDS011;593;53.184;8.216;2022-11-18T11:25:49;20.45;;;11.70;;
1206;SDS011;593;53.184;8.216;2022-11-18T11:28:39;16.75;;;9.90;;
1206;SDS011;593;53.184;8.216;2022-11-18T11:50:17;14.52;;;9.70;;
1206;SDS011;593;53.184;8.216;2022-11-18T12:07:19;14.68;;;9.57;;
1206;SDS011;593;53.184;8.216;2022-11-18T12:15:25;12.98;;;8.70;;
1206;SDS011;593;53.184;8.216;2022-11-18T12:18:11;11.60;;;8.77;;
1206;SDS011;593;53.184;8.216;2022-11-18T12:20:49;11.73;;;8.27;;
1206;SDS011;593;53.184;8.216;2022-11-18T12:23:17;11.68;;;8.63;;
1206;SDS011;593;53.184;8.216;2022-11-18T12:28:25;12.43;;;8.95;;
1206;SDS011;593;53.184;8.216;2022-11-18T12:31:38;10.68;;;7.72;;
1206;SDS011;593;53.184;8.216;2022-11-18T12:34:03;13.05;;;9.20;;
1206;SDS011;593;53.184;8.216;2022-11-18T12:36:44;12.07;;;7.75;;
1206;SDS011;593;53.184;8.216;2022-11-18T12:44:45;11.80;;;8.45;;
1206;SDS011;593;53.184;8.216;2022-11-18T12:47:13;10.77;;;8.73;;
1206;SDS011;593;53.184;8.216;2022-11-18T12:52:53;12.48;;;7.45;;
1206;SDS011;593;53.184;8.216;2022-11-18T12:54:53;11.38;;;8.32;;
1206;SDS011;593;53.184;8.216;2022-11-18T12:59:52;11.52;;;9.32;;
1206;SDS011;593;53.184;8.216;2022-11-18T13:02:22;13.50;;;9.05;;
1206;SDS011;593;53.184;8.216;2022-11-18T13:05:05;11.68;;;8.35;;
1206;SDS011;593;53.184;8.216;2022-11-18T13:07:32;10.25;;;8.00;;
1206;SDS011;593;53.184;8.216;2022-11-18T13:10:22;13.05;;;8.85;;
1206;SDS011;593;53.184;8.216;2022-11-18T13:12:51;10.10;;;8.68;;
1206;SDS011;593;53.184;8.216;2022-11-18T13:15:18;11.95;;;9.50;;
1206;SDS011;593;53.184;8.216;2022-11-18T13:18:06;11.32;;;8.40;;
1206;SDS011;593;53.184;8.216;2022-11-18T13:20:37;12.48;;;9.25;;
1206;SDS011;593;53.184;8.216;2022-11-18T13:26:10;12.48;;;8.68;;
1206;SDS011;593;53.184;8.216;2022-11-18T13:28:43;14.07;;;8.82;;
1206;SDS011;593;53.184;8.216;2022-11-18T13:31:28;13.90;;;8.98;;
1206;SDS011;593;53.184;8.216;2022-11-18T13:34:21;12.70;;;8.45;;
1206;SDS011;593;53.184;8.216;2022-11-18T13:36:50;12.25;;;8.65;;
1206;SDS011;593;53.184;8.216;2022-11-18T13:39:30;11.70;;;9.18;;
1206;SDS011;593;53.184;8.216;2022-11-18T13:42:00;15.55;;;10.00;;
1206;SDS011;593;53.184;8.216;2022-11-18T13:44:27;14.15;;;9.40;;
1206;SDS011;593;53.184;8.216;2022-11-18T13:46:55;13.05;;;9.27;;
1206;SDS011;593;53.184;8.216;2022-11-18T13:52:19;15.43;;;9.77;;
1206;SDS011;593;53.184;8.216;2022-11-18T13:54:51;14.23;;;10.63;;
1206;SDS011;593;53.184;8.216;2022-11-18T13:57:19;16.85;;;9.90;;
1206;SDS011;593;53.184;8.216;2022-11-18T13:59:48;12.52;;;8.90;;
1206;SDS011;593;53.184;8.216;2022-11-18T14:02:15;14.02;;;10.48;;
1206;SDS011;593;53.184;8.216;2022-11-18T14:04:54;14.70;;;10.43;;
1206;SDS011;593;53.184;8.216;2022-11-18T14:07:26;14.32;;;9.95;;
1206;SDS011;593;53.184;8.216;2022-11-18T14:09:58;15.60;;;10.73;;
1206;SDS011;593;53.184;8.216;2022-11-18T14:12:27;14.98;;;10.13;;
1206;SDS011;593;53.184;8.216;2022-11-18T14:15:11;19.25;;;11.50;;
1206;SDS011;593;53.184;8.216;2022-11-18T14:17:54;15.18;;;10.40;;
1206;SDS011;593;53.184;8.216;2022-11-18T14:20:21;16.02;;;10.60;;
1206;SDS011;593;53.184;8.216;2022-11-18T14:22:49;16.05;;;10.60;;
1206;SDS011;593;53.184;8.216;2022-11-18T14:27:48;16.83;;;10.27;;
1206;SDS011;593;53.184;8.216;2022-11-18T14:30:31;14.18;;;10.50;;
1206;SDS011;593;53.184;8.216;2022-11-18T14:33:02;16.30;;;9.48;;
1206;SDS011;593;53.184;8.216;2022-11-18T14:35:30;14.88;;;10.85;;
1206;SDS011;593;53.184;8.216;2022-11-18T14:37:56;14.43;;;9.50;;
1206;SDS011;593;53.184;8.216;2022-11-18T14:40:22;13.87;;;11.10;;
1206;SDS011;593;53.184;8.216;2022-11-18T14:42:47;16.57;;;10.60;;
1206;SDS011;593;53.184;8.216;2022-11-18T14:45:12;15.47;;;10.37;;
1206;SDS011;593;53.184;8.216;2022-11-18T14:47:38;16.80;;;11.60;;
1206;SDS011;593;53.184;8.216;2022-11-18T14:50:10;12.98;;;9.88;;
1206;SDS011;593;53.184;8.216;2022-11-18T14:52:37;16.10;;;11.30;;
1206;SDS011;593;53.184;8.216;2022-11-18T14:55:02;15.50;;;10.90;;
1206;SDS011;593;53.184;8.216;2022-11-18T14:57:28;18.00;;;12.43;;
1206;SDS011;593;53.184;8.216;2022-11-18T14:59:53;17.63;;;12.77;;
1206;SDS011;593;53.184;8.216;2022-11-18T15:02:18;13.53;;;10.10;;
1206;SDS011;593;53.184;8.216;2022-11-18T15:04:45;16.07;;;11.37;;
1206;SDS011;593;53.184;8.216;2022-11-18T15:07:11;14.95;;;10.80;;
1206;SDS011;593;53.184;8.216;2022-11-18T15:09:38;14.15;;;10.75;;
1206;SDS011;593;53.184;8.216;2022-11-18T15:12:04;14.83;;;11.33;;
1206;SDS011;593;53.184;8.216;2022-11-18T15:14:29;13.43;;;9.97;;
1206;SDS011;593;53.184;8.216;2022-11-18T15:16:56;18.33;;;11.80;;
1206;SDS011;593;53.184;8.216;2022-11-18T15:19:23;17.73;;;10.48;;
1206;SDS011;593;53.184;8.216;2022-11-18T15:21:49;16.07;;;10.67;;
1206;SDS011;593;53.184;8.216;2022-11-18T15:24:14;16.43;;;11.40;;
1206;SDS011;593;53.184;8.216;2022-11-18T15:26:41;17.67;;;11.47;;
1206;SDS011;593;53.184;8.216;2022-11-18T15:29:14;17.27;;;11.02;;
1206;SDS011;593;53.184;8.216;2022-11-18T15:31:40;18.58;;;11.90;;
1206;SDS011;593;53.184;8.216;2022-11-18T15:34:05;18.23;;;11.60;;
1206;SDS011;593;53.184;8.216;2022-11-18T15:36:30;14.30;;;11.50;;
1206;SDS011;593;53.184;8.216;2022-11-18T15:38:56;15.40;;;11.30;;
1206;SDS011;593;53.184;8.216;2022-11-18T15:41:25;15.00;;;10.73;;
1206;SDS011;593;53.184;8.216;2022-11-18T15:43:52;15.93;;;10.38;;
1206;SDS011;593;53.184;8.216;2022-11-18T15:46:19;16.08;;;11.32;;
1206;SDS011;593;53.184;8.216;2022-11-18T15:48:46;14.60;;;9.65;;
1206;SDS011;593;53.184;8.216;2022-11-18T15:51:12;15.60;;;11.20;;
1206;SDS011;593;53.184;8.216;2022-11-18T15:53:40;13.63;;;10.32;;
1206;SDS011;593;53.184;8.216;2022-11-18T15:58:56;14.43;;;10.20;;
1206;SDS011;593;53.184;8.216;2022-11-18T16:01:41;11.60;;;9.35;;
1206;SDS011;593;53.184;8.216;2022-11-18T16:04:08;12.75;;;9.48;;
1206;SDS011;593;53.184;8.216;2022-11-18T16:06:35;13.48;;;9.82;;
1206;SDS011;593;53.184;8.216;2022-11-18T16:09:01;13.17;;;10.00;;
1206;SDS011;593;53.184;8.216;2022-11-18T16:11:28;10.70;;;9.18;;
1206;SDS011;593;53.184;8.216;2022-11-18T16:14:13;11.73;;;9.15;;
1206;SDS011;593;53.184;8.216;2022-11-18T16:16:40;14.32;;;10.10;;
1206;SDS011;593;53.184;8.216;2022-11-18T16:19:07;11.85;;;9.20;;
1206;SDS011;593;53.184;8.216;2022-11-18T16:21:35;13.75;;;9.27;;
1206;SDS011;593;53.184;8.216;2022-11-18T16:24:04;15.50;;;9.80;;
1206;SDS011;593;53.184;8.216;2022-11-18T16:26:31;10.70;;;8.63;;
1206;SDS011;593;53.184;8.216;2022-11-18T16:28:57;14.48;;;10.15;;
1206;SDS011;593;53.184;8.216;2022-11-18T16:31:24;15.40;;;9.65;;
1206;SDS011;593;53.184;8.216;2022-11-18T16:34:22;14.30;;;9.07;;
1206;SDS011;593;53.184;8.216;2022-11-18T16:36:52;15.70;;;9.48;;
1206;SDS011;593;53.184;8.216;2022-11-18T16:39:22;11.25;;;8.95;;
1206;SDS011;593;53.184;8.216;2022-11-18T16:41:53;12.10;;;8.77;;
1206;SDS011;593;53.184;8.216;2022-11-18T16:44:19;12.30;;;8.73;;
1206;SDS011;593;53.184;8.216;2022-11-18T16:46:46;11.23;;;9.67;;
1206;SDS011;593;53.184;8.216;2022-11-18T16:49:16;11.80;;;7.90;;
1206;SDS011;593;53.184;8.216;2022-11-18T16:51:44;12.10;;;7.68;;
1206;SDS011;593;53.184;8.216;2022-11-18T16:56:43;9.88;;;7.47;;
1206;SDS011;593;53.184;8.216;2022-11-18T16:59:16;10.50;;;7.47;;
1206;SDS011;593;53.184;8.216;2022-11-18T17:01:45;8.25;;;6.75;;
1206;SDS011;593;53.184;8.216;2022-11-18T17:04:11;9.37;;;7.67;;
1206;SDS011;593;53.184;8.216;2022-11-18T17:06:36;9.40;;;7.00;;
1206;SDS011;593;53.184;8.216;2022-11-18T17:09:02;8.13;;;7.30;;
1206;SDS011;593;53.184;8.216;2022-11-18T17:11:28;10.33;;;7.83;;
1206;SDS011;593;53.184;8.216;2022-11-18T17:13:55;8.32;;;5.70;;
1206;SDS011;593;53.184;8.216;2022-11-18T17:16:20;8.13;;;6.40;;
1206;SDS011;593;53.184;8.216;2022-11-18T17:18:46;7.55;;;5.93;;
1206;SDS011;593;53.184;8.216;2022-11-18T17:21:17;7.53;;;5.50;;
1206;SDS011;593;53.184;8.216;2022-11-18T17:23:45;5.33;;;4.83;;
1206;SDS011;593;53.184;8.216;2022-11-18T17:26:12;6.57;;;5.25;;
1206;SDS011;593;53.184;8.216;2022-11-18T17:28:39;5.68;;;4.47;;
1206;SDS011;593;53.184;8.216;2022-11-18T17:31:08;5.30;;;4.67;;
1206;SDS011;593;53.184;8.216;2022-11-18T17:33:35;5.10;;;4.60;;
1206;SDS011;593;53.184;8.216;2022-11-18T17:36:02;5.10;;;3.63;;
1206;SDS011;593;53.184;8.216;2022-11-18T17:38:39;4.88;;;4.43;;
1206;SDS011;593;53.184;8.216;2022-11-18T17:41:05;4.35;;;3.75;;
1206;SDS011;593;53.184;8.216;2022-11-18T17:43:32;5.88;;;4.85;;
1206;SDS011;593;53.184;8.216;2022-11-18T17:45:59;5.18;;;3.90;;
1206;SDS011;593;53.184;8.216;2022-11-18T17:48:25;4.75;;;4.30;;
1206;SDS011;593;53.184;8.216;2022-11-18T17:50:52;4.90;;;4.40;;
1206;SDS011;593;53.184;8.216;2022-11-18T17:53:18;4.73;;;3.93;;